• Join FlightAware (Why Join?)
  • Login
  • US Flag 
06:23PM EDT


 

Airport Tracker/Info


-or-


 

Live Flight TrackerFlight Track Log ✈ DAL1117 ✈ 10-Apr-2013 ✈ KDTW - KLAS

Flight Track Log - Related Links

Times and Time Zones

All times are in EDT time to prevent confusion due to time zone crossing. See the DAL1117 flight status page for this flight to view local times or setup timezone preferences in your user account.

Time Position Orientation Groundspeed Altitude Reporting Facility
EDT Latitude Longitude Course Direction KTS MPH feet Rate Location/Type
11:50PM 42.2314 -83.3342 North 136 157 1,600  Level Cleveland Center
11:51PM 42.2814 -83.3308 North 227 261 2,400 1,620 Climbing Cleveland Center
11:52PM 42.3442 -83.3278 North 274 315 4,800 3,000 Climbing Cleveland Center
11:53PM 42.3711 -83.4133 293° West 261 300 8,200 2,580 Climbing Cleveland Center
11:54PM 42.3750 -83.5147 273° West 278 320 10,400 1,920 Climbing Cleveland Center
11:55PM 42.3842 -83.6333 276° West 296 341 12,400 2,640 Climbing Cleveland Center
11:56PM 42.3939 -83.7433 277° West 308 354 15,700 2,820 Climbing Cleveland Center
11:57PM 42.4031 -83.8619 276° West 313 360 18,100 2,160 Climbing Cleveland Center
11:58PM 42.4100 -83.9778 275° West 313 360 20,100 1,800 Climbing Cleveland Center
11:59PM 42.4189 -84.0992 276° West 313 360 21,800 1,560 Climbing Cleveland Center
12:00AM 42.4275 -84.2292 275° West 331 381 23,300 1,440 Climbing Cleveland Center
12:02AM 42.4361 -84.5533 272° West 362 417 26,900 1,380 Climbing Chicago Center
12:03AM 42.4411 -84.6911 273° West 366 421 28,100 1,020 Climbing Chicago Center
12:05AM 42.4436 -84.8325 271° West 375 432 29,000 540 Climbing Chicago Center
12:06AM 42.4467 -84.9811 272° West 391 450 29,300 480 Climbing Chicago Center
12:07AM 42.4514 -85.1378 272° West 412 474 30,000 1,260 Climbing Chicago Center
12:08AM 42.4822 -85.2881 286° West 418 481 31,900 1,320 Climbing Chicago Center
12:09AM 42.5158 -85.4367 287° West 412 474 32,700 540 Climbing Chicago Center
12:10AM 42.5494 -85.5842 287° West 410 472 33,000 120 Climbing Chicago Center
12:11AM 42.5817 -85.7331 286° West 410 472 33,000  Level Chicago Center
12:12AM 42.6217 -85.9131 287° West 412 474 33,000 300 Level Chicago Center
12:13AM 42.6553 -86.0658 287° West 419 482 33,700 780 Climbing Chicago Center
12:14AM 42.6881 -86.2189 286° West 418 481 34,600 840 Climbing Chicago Center
12:15AM 42.7206 -86.3661 287° West 406 467 35,500 660 Climbing Chicago Center
12:16AM 42.7525 -86.5136 286° West 403 464 36,000 240 Climbing Chicago Center
12:17AM 42.7833 -86.6608 286° West 402 463 36,000  Level Chicago Center
12:18AM 42.8150 -86.8064 287° West 400 460 36,000  Level Chicago Center
12:19AM 42.8447 -86.9542 285° West 401 461 36,000  Level Chicago Center
12:20AM 42.8767 -87.1011 287° West 405 466 36,000  Level Chicago Center
12:21AM 42.8886 -87.2492 276° West 392 451 36,000  Level Chicago Center
12:22AM 42.8800 -87.3906 265° West 395 455 36,000  Level Chicago Center
12:23AM 42.8628 -87.5550 262° West 379 436 36,000  Level Chicago Center
12:24AM 42.8503 -87.6978 263° West 380 437 36,000  Level Chicago Center
12:25AM 42.8369 -87.8447 263° West 384 442 36,000  Level Chicago Center
12:26AM 42.8231 -87.9892 263° West 383 441 36,000  Level Chicago Center
12:27AM 42.8097 -88.1358 263° West 386 444 36,000  Level Chicago Center
12:28AM 42.7958 -88.2828 263° West 388 447 36,000  Level Chicago Center
12:29AM 42.7811 -88.4311 262° West 392 451 36,000  Level Chicago Center
12:30AM 42.7667 -88.5814 263° West 394 453 36,000  Level Chicago Center
12:31AM 42.7514 -88.7322 262° West 398 458 36,000  Level Chicago Center
12:32AM 42.7361 -88.8817 262° West 398 458 36,000  Level Chicago Center
12:33AM 42.7214 -89.0317 262° West 398 458 36,000  Level Chicago Center
12:34AM 42.7053 -89.1808 262° West 398 458 36,000  Level Chicago Center
12:35AM 42.6889 -89.3311 262° West 399 459 36,000  Level Chicago Center
12:36AM 42.6733 -89.4814 262° West 401 461 36,000  Level Chicago Center
12:37AM 42.6572 -89.6333 262° West 404 465 36,000  Level Chicago Center
12:38AM 42.6394 -89.7825 261° West 402 463 36,000  Level Chicago Center
12:39AM 42.6236 -89.9411 262° West 405 466 36,000  Level Chicago Center
12:40AM 42.6083 -90.0914 262° West 404 465 36,000  Level Chicago Center
12:41AM 42.5914 -90.2397 261° West 402 463 36,000  Level Chicago Center
12:42AM 42.5739 -90.3886 261° West 401 461 36,000  Level Chicago Center
12:43AM 42.5558 -90.5378 261° West 404 465 36,000  Level Chicago Center
12:44AM 42.5389 -90.6894 261° West 406 467 36,000  Level Chicago Center
12:45AM 42.5208 -90.8397 261° West 407 468 36,000  Level Chicago Center
12:46AM 42.5028 -90.9900 261° West 406 467 36,000  Level Chicago Center
12:47AM 42.4828 -91.1403 260° West 407 468 36,000  Level Chicago Center
12:48AM 42.4611 -91.3222 261° West 408 470 36,000  Level Chicago Center
12:49AM 42.4408 -91.4758 260° West 412 474 36,000  Level Chicago Center
12:50AM 42.4214 -91.6283 260° West 411 473 36,000  Level Chicago Center
12:51AM 42.4022 -91.7803 260° West 410 472 36,000  Level Chicago Center
12:52AM 42.3819 -91.9331 260° West 410 472 36,000  Level Chicago Center
12:53AM 42.3625 -92.0856 260° West 412 474 36,000  Level Chicago Center
12:54AM 42.3503 -92.1800 260° West 415 478 36,000  Level Minneapolis Center
12:55AM 42.3303 -92.3336 260° West 417 480 36,000  Level Minneapolis Center
12:56AM 42.3053 -92.5197 260° West 419 482 36,000  Level Minneapolis Center
12:57AM 42.2844 -92.6736 260° West 420 483 36,000  Level Minneapolis Center
12:58AM 42.2622 -92.8278 259° West 420 483 36,000  Level Minneapolis Center
12:59AM 42.2408 -92.9853 260° West 426 490 36,000  Level Minneapolis Center
01:00AM 42.2186 -93.1431 259° West 429 494 36,000  Level Minneapolis Center
01:01AM 42.1961 -93.3017 259° West 432 497 36,000  Level Minneapolis Center
01:02AM 42.1739 -93.4608 259° West 434 499 36,000  Level Minneapolis Center
01:03AM 42.1503 -93.6194 259° West 433 498 36,000  Level Minneapolis Center
01:05AM 42.1177 -93.8374 259° West  Level FlightAware Approximate
01:12AM 41.9529 -94.8989 259° West  Level FlightAware Approximate
01:13AM 41.9285 -95.0500 258° West  Level FlightAware Approximate
01:14AM 41.9040 -95.2011 258° West  Level FlightAware Approximate
01:15AM 41.8792 -95.3520 258° West  Level FlightAware Approximate
01:16AM 41.8543 -95.5029 258° West  Level FlightAware Approximate
01:17AM 41.8292 -95.6536 257° West  Level FlightAware Approximate
01:18AM 41.8038 -95.8042 257° West  Level FlightAware Approximate
01:19AM 41.7783 -95.9546 257° West  Level FlightAware Approximate
01:20AM 41.7526 -96.1050 257° West  Level FlightAware Approximate
01:21AM 41.7267 -96.2554 257° West  Level FlightAware Approximate
01:22AM 41.7009 -96.4056 257° West  Level FlightAware Approximate
01:23AM 41.6748 -96.5556 257° West  Level FlightAware Approximate
01:24AM 41.6486 -96.7056 257° West  Level FlightAware Approximate
01:25AM 41.6222 -96.8554 257° West  Level FlightAware Approximate
01:25AM 41.5761 -97.1503 256° West 451 519 36,000  Level Minneapolis Center
01:26AM 41.5955 -97.0051 257° West  Level FlightAware Approximate
01:26AM 41.5486 -97.3106 257° West 446 513 36,000  Level Minneapolis Center
01:27AM 41.5687 -97.1547 257° West  Level FlightAware Approximate
01:27AM 41.5183 -97.4711 256° West 447 514 36,000  Level Minneapolis Center
01:28AM 41.5417 -97.3041 256° West  Level FlightAware Approximate
01:28AM 41.4903 -97.6317 257° West 446 513 36,000  Level Minneapolis Center
01:29AM 41.5145 -97.4535 256° West  Level FlightAware Approximate
01:29AM 41.4603 -97.7906 256° West 443 510 36,000  Level Minneapolis Center
01:30AM 41.4871 -97.6027 256° West  Level FlightAware Approximate
01:30AM 41.4306 -97.9494 256° West 443 510 36,000  Level Minneapolis Center
01:31AM 41.3967 -98.1306 256° West 444 511 36,000  Level Minneapolis Center
01:32AM 41.3664 -98.2903 256° West 445 512 36,000  Level Minneapolis Center
01:33AM 41.3364 -98.4503 256° West 445 512 36,000  Level Minneapolis Center
01:34AM 41.3097 -98.5903 256° West 449 517 36,000  Level Minneapolis Center
01:35AM 41.2781 -98.7500 255° West 449 517 36,000  Level Minneapolis Center
01:36AM 41.2408 -98.9417 256° West 447 514 36,000  Level Minneapolis Center
01:37AM 41.2181 -99.0581 255° West 445 512 36,000  Level Denver Center
01:38AM 41.1883 -99.2069 255° West 446 513 36,000  Level Denver Center
01:39AM 41.1569 -99.3664 255° West 446 513 36,000  Level Denver Center
01:40AM 41.1217 -99.5406 255° West 447 514 36,000  Level Denver Center
01:41AM 41.0858 -99.7161 255° West 447 514 36,000  Level Denver Center
01:42AM 41.0542 -99.8697 255° West 448 516 36,000  Level Denver Center
01:43AM 41.0222 -100.0225 255° West 450 518 36,000  Level Denver Center
01:44AM 40.9908 -100.1769 255° West 453 521 36,000  Level Denver Center
01:45AM 40.9528 -100.3564 254° West 454 522 36,000  Level Denver Center
01:46AM 40.9211 -100.5069 254° West 449 517 36,000  Level Denver Center
01:47AM 40.8894 -100.6578 255° West 449 517 36,000  Level Denver Center
01:48AM 40.8522 -100.8233 253° West 445 512 36,000  Level Denver Center
01:49AM 40.8200 -100.9761 254° West 455 524 36,000  Level Denver Center
01:50AM 40.7814 -101.1542 254° West 453 521 36,000  Level Denver Center
01:51AM 40.7481 -101.3069 254° West 453 521 36,000  Level Denver Center
01:52AM 40.7144 -101.4611 254° West 457 526 36,000  Level Denver Center
01:53AM 40.6747 -101.6392 254° West 455 524 36,000  Level Denver Center
01:54AM 40.6417 -101.7911 254° West 452 520 36,000  Level Denver Center
01:55AM 40.6078 -101.9417 254° West 450 518 36,000  Level Denver Center
01:56AM 40.5653 -102.1167 252° West 451 519 36,000  Level Denver Center
01:57AM 40.5317 -102.2681 254° West 451 519 36,000  Level Denver Center
01:58AM 40.4956 -102.4206 253° West 456 525 36,100  Climbing Denver Center
01:59AM 40.4553 -102.5939 253° West 446 513 36,000 -60 Descending Denver Center
02:00AM 40.4242 -102.7294 253° West 451 519 36,000  Level Denver Center
02:01AM 40.3861 -102.8889 253° West 453 521 36,000  Level Denver Center
02:02AM 40.3478 -103.0492 253° West 457 526 36,000  Level Denver Center
02:03AM 40.3111 -103.2078 253° West 455 524 36,000 60 Level Denver Center
02:04AM 40.2714 -103.3683 252° West 459 528 36,200 360 Climbing Denver Center
02:05AM 40.2325 -103.5289 252° West 461 531 36,800 540 Climbing Denver Center
02:06AM 40.1939 -103.6914 253° West 464 534 37,400 540 Climbing Denver Center
02:07AM 40.1542 -103.8575 253° West 469 540 38,000 240 Climbing Denver Center
02:08AM 40.1139 -104.0164 252° West 458 527 38,000  Level Denver Center
02:09AM 40.0744 -104.1775 252° West 459 528 38,000  Level Denver Center
02:10AM 40.0336 -104.3361 251° West 461 531 38,000  Level Denver Center
02:11AM 39.9947 -104.4936 252° West 453 521 38,100  Climbing Denver Center
02:12AM 39.9564 -104.6467 252° West 444 511 38,000 -60 Descending Denver Center
02:13AM 39.9164 -104.7969 251° West 433 498 38,000  Level Denver Center
02:14AM 39.8761 -104.9531 251° West 445 512 38,000  Level Denver Center
02:15AM 39.8292 -105.1358 252° West 460 529 38,000  Level Denver Center
02:16AM 39.7883 -105.2919 251° West 453 521 38,000  Level Denver Center
02:17AM 39.7467 -105.4489 251° West 459 528 38,000  Level Denver Center
02:18AM 39.7061 -105.6028 251° West 447 514 38,000  Level Denver Center
02:19AM 39.6644 -105.7575 251° West 447 514 38,000  Level Denver Center
02:20AM 39.6244 -105.9106 251° West 440 506 38,000  Level Denver Center
02:21AM 39.5833 -106.0661 251° West 450 518 38,000  Level Denver Center
02:22AM 39.5431 -106.2158 251° West 453 521 38,000  Level Denver Center
02:23AM 39.5008 -106.3692 250° West 451 519 38,000  Level Denver Center
02:25AM 39.4586 -106.5233 251° West 447 514 38,000  Level Denver Center
02:26AM 39.4192 -106.6667 250° West 442 509 38,000  Level Denver Center
02:27AM 39.3792 -106.8106 250° West 443 510 38,000  Level Denver Center
02:28AM 39.3328 -106.9753 250° West 434 499 38,000  Level Denver Center
02:29AM 39.2942 -107.1167 251° West 435 501 38,000  Level Denver Center
02:30AM 39.2531 -107.2594 250° West 441 507 38,000  Level Denver Center
02:31AM 39.2142 -107.4003 250° West 437 503 38,000  Level Denver Center
02:32AM 39.1669 -107.5642 250° West 436 502 38,000  Level Denver Center
02:33AM 39.1258 -107.7042 249° West 436 502 38,000  Level Denver Center
02:34AM 39.0856 -107.8444 250° West 435 501 38,000  Level Denver Center
02:35AM 39.0389 -108.0069 250° West 434 499 38,000  Level Denver Center
02:36AM 38.9992 -108.1458 250° West 431 496 38,000  Level Denver Center
02:37AM 38.9581 -108.2864 249° West 437 503 38,000  Level Denver Center
02:38AM 38.9164 -108.4253 249° West 435 501 38,000  Level Denver Center
02:39AM 38.8700 -108.5869 250° West 431 496 38,000  Level Denver Center
02:40AM 38.8283 -108.7228 249° West 426 490 38,000  Level Denver Center
02:41AM 38.7886 -108.8581 249° West 419 482 38,000  Level Denver Center
02:42AM 38.7425 -109.0125 249° West 415 478 38,000  Level Denver Center
02:43AM 38.7028 -109.1436 249° West 412 474 38,000  Level Denver Center
02:44AM 38.6642 -109.2758 250° West 414 476 38,000  Level Denver Center
02:45AM 38.6161 -109.4297 248° West 415 478 38,000  Level Denver Center
02:46AM 38.5744 -109.5614 248° West 418 481 38,000  Level Denver Center
02:47AM 38.5344 -109.6928 249° West 415 478 38,000  Level Denver Center
02:48AM 38.4936 -109.8250 249° West 416 479 38,000  Level Denver Center
02:49AM 38.4461 -109.9761 248° West 408 470 38,000  Level Denver Center
02:50AM 38.3983 -110.1039 245° Southwest 417 480 38,000  Level Denver Center
02:51AM 38.3442 -110.2275 241° Southwest 417 480 38,000  Level Denver Center
02:52AM 38.2822 -110.3728 242° Southwest 418 481 38,000  Level Denver Center
02:53AM 38.2283 -110.4953 241° Southwest 416 479 38,000  Level Denver Center
02:54AM 38.1747 -110.6183 241° Southwest 415 478 38,000  Level Denver Center
02:55AM 38.1311 -110.7211 242° Southwest 415 478 38,000  Level Salt Lake Center
02:56AM 38.0678 -110.8644 241° Southwest 416 479 38,000  Level Salt Lake Center
02:57AM 38.0119 -110.9881 240° Southwest 414 476 38,000  Level Salt Lake Center
02:58AM 37.9547 -111.1147 240° Southwest 414 476 38,000  Level Salt Lake Center
02:59AM 37.9000 -111.2408 241° Southwest 410 472 38,000  Level Salt Lake Center
03:00AM 37.8442 -111.3661 241° Southwest 410 472 38,000  Level Salt Lake Center
03:01AM 37.7894 -111.4922 241° Southwest 410 472 38,000  Level Salt Lake Center
03:02AM 37.7314 -111.6178 240° Southwest 415 478 38,000  Level Salt Lake Center
03:03AM 37.6739 -111.7436 240° Southwest 414 476 38,000  Level Salt Lake Center
03:04AM 37.6175 -111.8669 240° Southwest 406 467 38,000  Level Salt Lake Center
03:05AM 37.5622 -111.9903 241° Southwest 404 465 38,000  Level Salt Lake Center
03:06AM 37.5061 -112.1133 240° Southwest 403 464 38,000 -60 Level Salt Lake Center
03:07AM 37.4492 -112.2367 240° Southwest 406 467 37,900 -540 Descending Salt Lake Center
03:08AM 37.3919 -112.3611 240° Southwest 409 471 37,000 -960 Descending Salt Lake Center
03:09AM 37.3333 -112.4842 239° Southwest 408 470 36,000 -1,020 Descending Los Angeles Center
03:10AM 37.2747 -112.6136 240° Southwest 420 483 35,000 -1,020 Descending Los Angeles Center
03:11AM 37.2139 -112.7433 240° Southwest 425 489 34,000 -1,020 Descending Salt Lake Center
03:12AM 37.1531 -112.8728 240° Southwest 427 491 33,000 -1,020 Descending Salt Lake Center
03:13AM 37.0917 -113.0042 240° Southwest 432 497 32,000 -1,020 Descending Salt Lake Center
03:14AM 37.0297 -113.1356 239° Southwest 436 502 31,000 -960 Descending Salt Lake Center
03:15AM 36.9656 -113.2697 239° Southwest 443 510 30,100 -960 Descending Salt Lake Center
03:16AM 36.9017 -113.4031 239° Southwest 446 513 29,100 -1,020 Descending Salt Lake Center
03:17AM 36.8392 -113.5367 240° Southwest 446 513 28,100 -960 Descending Salt Lake Center
03:18AM 36.7761 -113.6667 239° Southwest 442 509 27,200 -1,080 Descending Los Angeles Center
03:19AM 36.7147 -113.7950 239° Southwest 434 499 26,000 -1,980 Descending Los Angeles Center
03:20AM 36.6542 -113.9194 239° Southwest 424 488 23,300 -2,700 Descending Los Angeles Center
03:21AM 36.5969 -114.0383 239° Southwest 405 466 20,700 -2,640 Descending Los Angeles Center
03:22AM 36.5433 -114.1550 240° Southwest 392 451 18,000 -3,000 Descending Los Angeles Center
03:22AM 36.5269 -114.2042 247° West 406 467 16,900 -3,000 Descending Los Angeles Center
03:23AM 36.4903 -114.2811 239° Southwest 382 440 15,100 -2,700 Descending Los Angeles Center
03:24AM 36.4269 -114.3858 233° Southwest 378 435 12,300 -2,280 Descending Los Angeles Center
03:25AM 36.3592 -114.4886 231° Southwest 366 421 10,500 -1,440 Descending Los Angeles Center
03:26AM 36.3067 -114.5739 233° Southwest 316 364 9,400 -1,260 Descending Los Angeles Center
03:27AM 36.2567 -114.6539 232° Southwest 296 341 8,000 -720 Descending Los Angeles Center
03:28AM 36.2097 -114.7275 232° Southwest 275 316 8,000  Level Los Angeles Center
03:29AM 36.1697 -114.7931 233° Southwest 245 282 8,000 -180 Level Los Angeles Center
03:30AM 36.1361 -114.8500 234° Southwest 204 235 7,700 -1,140 Descending Los Angeles Center
03:31AM 36.1022 -114.9014 231° Southwest 190 219 5,800 -1,620 Descending Los Angeles Center
03:32AM 36.0761 -114.9500 236° Southwest 174 200 4,500 -1,020 Descending Los Angeles Center
03:33AM 36.0739 -115.0092 267° West 170 196 3,800 -720 Descending Los Angeles Center
03:34AM 36.0739 -115.0608 270° West 165 190 3,100 -780 Descending Los Angeles Center
03:35AM 36.0736 -115.1106 270° West 156 180 2,300 -840 Descending Los Angeles Center
03:37AM 36.0667 -115.1500 219° Southwest  Level FlightAware Approximate